Side Lake, Minnesota
Current Conditions -  °F | °C
As of 8:34 PM on Friday 24 Oct 2014 (Local Time) from KCQM Reporting Station
Clear Clear  
Wind Chill: 63°   Ceiling: Unl
Heat Index: 63°   Visibility: 10mi
Dew Point: 41°   Wind: 14mph
Humidity: 45%   Direction: 240°WSW
Pressure: 29.71"   Gusts: 18mph
Location:  47.67°N, 93.02°W
Report Text: KCQM 250134Z AUTO 24012G16KT 221V281 10SM CLR 17/05 A2971 RMK AO2
Loading
Personal Weather Stations






























Interactive Weather Map
Tropical Storm Tracking
New forecast layout! Learn more

10-Day Weather Forecast

Advertisements
Track Severe Weather on mobile